createdAt,value
2022-11-03T00:01:46.406Z,8.85
2022-11-03T00:04:16.011Z,8.85
2022-11-03T00:06:44.814Z,8.84
2022-11-03T00:09:14.055Z,8.88
2022-11-03T00:11:43.242Z,8.95
2022-11-03T00:14:11.045Z,8.88
2022-11-03T00:16:39.632Z,8.85
2022-11-03T00:19:08.674Z,8.91
2022-11-03T00:21:36.710Z,8.73
2022-11-03T00:24:04.986Z,8.45
2022-11-03T00:26:34.270Z,8.52
2022-11-03T00:29:06.919Z,8.29
2022-11-03T00:31:36.477Z,8.44
2022-11-03T00:34:05.615Z,8.53
2022-11-03T00:36:35.757Z,8.63
2022-11-03T00:39:04.531Z,8.70
2022-11-03T00:41:32.318Z,8.66
2022-11-03T00:44:00.127Z,8.67
2022-11-03T00:46:30.305Z,8.54
2022-11-03T00:48:58.048Z,8.53
2022-11-03T00:51:27.294Z,8.42
2022-11-03T00:54:00.514Z,8.34
2022-11-03T00:56:30.906Z,8.47
2022-11-03T00:58:59.692Z,8.46
2022-11-03T01:01:31.361Z,8.45
2022-11-03T01:04:18.012Z,8.46
2022-11-03T01:06:50.987Z,8.39
2022-11-03T01:09:38.959Z,8.43
2022-11-03T01:12:17.581Z,8.43
2022-11-03T01:14:50.519Z,8.18
2022-11-03T01:17:23.802Z,8.20
2022-11-03T01:19:52.073Z,8.24
2022-11-03T01:22:20.673Z,8.25
2022-11-03T01:24:48.185Z,8.21
2022-11-03T01:27:17.601Z,8.19
2022-11-03T01:29:45.394Z,8.17
2022-11-03T01:32:13.204Z,8.10
2022-11-03T01:34:41.053Z,8.13
2022-11-03T01:37:08.969Z,8.06
2022-11-03T01:39:36.827Z,8.04
2022-11-03T01:42:04.593Z,8.11
2022-11-03T01:44:33.745Z,7.99
2022-11-03T01:47:05.169Z,8.03
2022-11-03T01:49:40.806Z,7.96
2022-11-03T01:52:14.674Z,7.93
2022-11-03T01:54:45.264Z,7.95
2022-11-03T01:57:17.291Z,7.96
2022-11-03T01:59:47.119Z,7.93
2022-11-03T02:02:22.118Z,7.88
2022-11-03T02:04:49.621Z,7.86
2022-11-03T02:07:26.847Z,7.94
2022-11-03T02:09:54.394Z,7.94
2022-11-03T02:12:22.077Z,7.93
2022-11-03T02:15:00.739Z,7.86
2022-11-03T02:17:30.174Z,7.70
2022-11-03T02:20:24.429Z,7.59
2022-11-03T02:22:59.230Z,7.60
2022-11-03T02:25:46.178Z,7.68
2022-11-03T02:28:17.965Z,7.71
2022-11-03T02:31:22.120Z,7.70
2022-11-03T02:33:58.312Z,7.72
2022-11-03T02:36:53.931Z,7.71
2022-11-03T02:39:25.160Z,7.66
2022-11-03T02:41:53.836Z,7.63
2022-11-03T02:44:21.306Z,7.69
2022-11-03T02:47:00.955Z,7.69
2022-11-03T02:49:28.409Z,7.69
2022-11-03T02:52:00.379Z,7.62
2022-11-03T02:54:45.229Z,7.65
2022-11-03T02:57:17.139Z,7.68
2022-11-03T02:59:58.352Z,7.61
2022-11-03T03:02:54.359Z,7.41
2022-11-03T03:05:25.005Z,7.41
2022-11-03T03:07:57.236Z,7.51
2022-11-03T03:10:28.469Z,7.54
2022-11-03T03:12:58.366Z,7.56
2022-11-03T03:15:34.149Z,7.54
2022-11-03T03:18:26.812Z,7.52
2022-11-03T03:20:59.703Z,7.54
2022-11-03T03:23:31.516Z,7.58
2022-11-03T03:26:03.690Z,7.56
2022-11-03T03:28:39.072Z,7.56
2022-11-03T03:31:09.693Z,7.15
2022-11-03T03:33:39.711Z,7.31
2022-11-03T03:36:13.768Z,7.29
2022-11-03T03:38:46.228Z,7.31
2022-11-03T03:41:21.974Z,7.30
2022-11-03T03:43:52.169Z,7.19
2022-11-03T03:46:22.282Z,7.09
2022-11-03T03:48:49.844Z,6.74
2022-11-03T03:51:20.770Z,6.73
2022-11-03T03:53:53.173Z,6.99
2022-11-03T03:56:28.507Z,7.12
2022-11-03T03:58:56.321Z,7.15
2022-11-03T04:01:24.455Z,7.05
2022-11-03T04:03:52.423Z,6.82
2022-11-03T04:06:19.929Z,6.76
2022-11-03T04:08:47.350Z,6.85
2022-11-03T04:11:33.412Z,6.59
2022-11-03T04:14:19.684Z,6.43
2022-11-03T04:17:05.882Z,6.60
2022-11-03T04:19:52.104Z,6.50
2022-11-03T04:22:21.315Z,6.71
2022-11-03T04:24:50.561Z,6.83
2022-11-03T04:27:31.325Z,7.02
2022-11-03T04:30:21.335Z,7.11
2022-11-03T04:32:49.948Z,7.00
2022-11-03T04:35:19.945Z,6.83
2022-11-03T04:38:01.378Z,6.70
2022-11-03T04:40:29.600Z,6.72
2022-11-03T04:42:57.699Z,6.89
2022-11-03T04:45:34.026Z,7.06
2022-11-03T04:48:03.221Z,6.98
2022-11-03T04:50:30.688Z,6.73
2022-11-03T04:52:58.874Z,6.89
2022-11-03T04:55:26.851Z,6.92
2022-11-03T04:57:57.992Z,6.87
2022-11-03T05:00:25.432Z,6.92
2022-11-03T05:02:55.943Z,6.92
2022-11-03T05:05:26.127Z,6.91
2022-11-03T05:07:55.791Z,6.86
2022-11-03T05:10:28.286Z,6.86
2022-11-03T05:12:56.443Z,6.97
2022-11-03T05:15:30.289Z,7.00
2022-11-03T05:18:00.672Z,7.03
2022-11-03T05:20:36.379Z,6.95
2022-11-03T05:23:05.720Z,6.89
2022-11-03T05:25:42.684Z,6.84
2022-11-03T05:28:22.027Z,6.89
2022-11-03T05:30:50.034Z,6.89
2022-11-03T05:33:20.947Z,6.81
2022-11-03T05:35:49.016Z,6.53
2022-11-03T05:38:20.027Z,6.66
2022-11-03T05:40:50.920Z,6.63
2022-11-03T05:43:18.597Z,6.66
2022-11-03T05:45:46.648Z,6.53
2022-11-03T05:48:19.629Z,6.59
2022-11-03T05:50:47.095Z,6.60
2022-11-03T05:53:38.599Z,6.48
2022-11-03T05:56:07.192Z,6.57
2022-11-03T05:58:39.270Z,6.55
2022-11-03T06:01:18.782Z,6.56
2022-11-03T06:03:47.291Z,6.38
2022-11-03T06:06:24.211Z,6.40
2022-11-03T06:08:56.068Z,6.15
2022-11-03T06:11:36.312Z,6.36
2022-11-03T06:14:21.329Z,5.93
2022-11-03T06:17:07.247Z,6.17
2022-11-03T06:19:40.262Z,6.11
2022-11-03T06:22:31.037Z,6.25
2022-11-03T06:25:01.778Z,6.05
2022-11-03T06:27:31.130Z,6.14
2022-11-03T06:30:02.362Z,6.25
2022-11-03T06:32:30.787Z,6.42
2022-11-03T06:34:59.140Z,6.09
2022-11-03T06:37:31.856Z,6.03
2022-11-03T06:40:19.852Z,6.16
2022-11-03T06:42:47.554Z,6.26
2022-11-03T06:45:20.993Z,6.44
2022-11-03T06:47:49.076Z,6.35
2022-11-03T06:50:28.820Z,6.21
2022-11-03T06:52:57.589Z,6.11
2022-11-03T06:55:29.905Z,6.29
2022-11-03T06:58:03.917Z,6.28
2022-11-03T07:00:36.334Z,6.15
2022-11-03T07:03:26.681Z,6.36
2022-11-03T07:05:58.715Z,6.43
2022-11-03T07:08:36.214Z,6.37
2022-11-03T07:11:19.260Z,6.51
2022-11-03T07:13:58.454Z,6.53
2022-11-03T07:16:44.946Z,6.89
2022-11-03T07:19:22.800Z,6.88
2022-11-03T07:21:53.012Z,6.81
2022-11-03T07:24:31.870Z,6.55
2022-11-03T07:27:21.941Z,6.63
2022-11-03T07:29:51.019Z,6.51
2022-11-03T07:32:21.476Z,6.66
2022-11-03T07:34:51.939Z,7.06
2022-11-03T07:37:23.184Z,7.34
2022-11-03T07:39:51.685Z,7.54
2022-11-03T07:42:24.647Z,7.68
2022-11-03T07:44:55.859Z,7.86
2022-11-03T07:47:28.681Z,8.17
2022-11-03T07:49:56.423Z,8.13
2022-11-03T07:52:25.009Z,8.40
2022-11-03T07:54:55.036Z,8.31
2022-11-03T07:57:25.987Z,8.33
2022-11-03T08:00:03.843Z,8.55
2022-11-03T08:02:48.928Z,8.66
2022-11-03T08:05:16.574Z,8.57
2022-11-03T08:07:44.085Z,8.73
2022-11-03T08:10:11.657Z,9.02
2022-11-03T08:12:39.403Z,9.26
2022-11-03T08:15:09.579Z,9.38
2022-11-03T08:17:37.478Z,9.29
2022-11-03T08:20:05.404Z,9.25
2022-11-03T08:22:32.950Z,9.50
2022-11-03T08:25:00.508Z,9.43
2022-11-03T08:27:28.061Z,9.81
2022-11-03T08:29:55.804Z,9.65
2022-11-03T08:32:23.432Z,9.46
2022-11-03T08:34:51.124Z,9.81
2022-11-03T08:37:19.461Z,9.92
2022-11-03T08:39:47.514Z,10.06
2022-11-03T08:42:15.186Z,10.26
2022-11-03T08:44:42.761Z,10.45
2022-11-03T08:47:10.280Z,10.60
2022-11-03T08:49:38.075Z,10.43
2022-11-03T08:52:05.572Z,10.84
2022-11-03T08:54:33.248Z,10.97
2022-11-03T08:57:00.874Z,11.24
2022-11-03T08:59:28.444Z,11.37
2022-11-03T09:01:57.666Z,11.48
2022-11-03T09:04:25.209Z,11.76
2022-11-03T09:06:52.685Z,11.79
2022-11-03T09:12:08.646Z,12.33
2022-11-03T09:14:36.147Z,12.44
2022-11-03T09:19:36.773Z,12.85
2022-11-03T09:22:04.248Z,13.03
2022-11-03T09:24:31.843Z,13.01
2022-11-03T09:27:02.174Z,13.26
2022-11-03T09:29:51.567Z,13.30
2022-11-03T09:32:23.030Z,13.37
2022-11-03T09:34:51.436Z,13.34
2022-11-03T09:37:19.414Z,13.77
2022-11-03T09:39:47.448Z,13.81
2022-11-03T09:42:15.862Z,13.78
2022-11-03T09:44:43.517Z,13.82
2022-11-03T09:47:19.748Z,13.92
2022-11-03T09:49:47.290Z,13.60
2022-11-03T09:52:20.372Z,14.13
2022-11-03T09:54:48.417Z,14.00
2022-11-03T09:57:17.002Z,13.43
2022-11-03T09:59:47.515Z,13.52
2022-11-03T10:02:28.657Z,13.06
2022-11-03T10:04:58.294Z,13.76
2022-11-03T10:07:27.401Z,13.88
2022-11-03T10:09:56.489Z,14.47
2022-11-03T10:12:24.445Z,14.67
2022-11-03T10:14:52.659Z,14.59
2022-11-03T10:17:22.465Z,14.94
2022-11-03T10:19:52.680Z,15.09
2022-11-03T10:22:20.578Z,15.05
2022-11-03T10:24:48.648Z,14.72
2022-11-03T10:27:25.355Z,14.70
2022-11-03T10:30:11.054Z,14.63
2022-11-03T10:32:39.017Z,15.00
2022-11-03T10:35:33.665Z,15.31
2022-11-03T10:38:22.549Z,15.31
2022-11-03T10:40:50.708Z,14.84
2022-11-03T10:43:18.424Z,15.08
2022-11-03T10:45:46.131Z,15.19
2022-11-03T10:48:13.593Z,15.30
2022-11-03T10:50:42.043Z,15.40
2022-11-03T10:53:16.763Z,15.12
2022-11-03T10:55:44.370Z,15.25
2022-11-03T10:58:11.881Z,15.66
2022-11-03T11:00:41.832Z,15.89
2022-11-03T11:03:16.384Z,16.07
2022-11-03T11:05:48.329Z,16.20
2022-11-03T11:08:20.607Z,16.25
2022-11-03T11:10:48.345Z,16.37
2022-11-03T11:13:19.049Z,16.18
2022-11-03T11:16:07.688Z,16.52
2022-11-03T11:18:35.125Z,15.87
2022-11-03T11:21:24.683Z,16.09
2022-11-03T11:23:53.035Z,15.38
2022-11-03T11:26:26.887Z,15.32
2022-11-03T11:29:09.831Z,15.77
2022-11-03T11:31:44.486Z,15.82
2022-11-03T11:34:21.233Z,15.31
2022-11-03T11:36:56.990Z,15.39
2022-11-03T11:39:24.775Z,15.80
2022-11-03T11:42:14.768Z,15.90
2022-11-03T11:44:54.957Z,16.27
2022-11-03T11:47:34.791Z,16.17
2022-11-03T11:50:09.589Z,16.00
2022-11-03T11:52:44.417Z,15.80
2022-11-03T11:55:24.373Z,15.52
2022-11-03T11:57:53.341Z,15.86
2022-11-03T12:00:26.552Z,15.83
2022-11-03T12:02:54.351Z,16.07
2022-11-03T12:05:27.846Z,16.16
2022-11-03T12:07:55.504Z,16.31
2022-11-03T12:10:28.870Z,15.86
2022-11-03T12:12:57.590Z,16.14
2022-11-03T12:15:57.243Z,16.31
2022-11-03T12:18:46.085Z,16.63
2022-11-03T12:21:46.123Z,16.78
2022-11-03T12:24:38.110Z,16.60
2022-11-03T12:27:23.936Z,16.12
2022-11-03T12:29:52.772Z,15.49
2022-11-03T12:32:33.012Z,15.35
2022-11-03T12:35:08.399Z,15.89
2022-11-03T12:37:37.327Z,16.09
2022-11-03T12:40:06.109Z,16.29
2022-11-03T12:42:33.795Z,16.18
2022-11-03T12:45:01.313Z,16.45
2022-11-03T12:47:28.923Z,16.58
2022-11-03T12:49:56.625Z,16.59
2022-11-03T12:52:24.301Z,16.54
2022-11-03T12:54:51.929Z,16.53
2022-11-03T12:57:20.009Z,16.64
2022-11-03T12:59:47.767Z,16.61
2022-11-03T13:02:15.875Z,16.64
2022-11-03T13:04:43.470Z,16.64
2022-11-03T13:07:11.188Z,16.62
2022-11-03T13:09:39.131Z,16.84
2022-11-03T13:12:25.046Z,16.66
2022-11-03T13:14:52.478Z,16.61
2022-11-03T13:17:19.901Z,16.47
2022-11-03T13:19:47.349Z,16.72
2022-11-03T13:22:14.811Z,16.70
2022-11-03T13:24:42.428Z,16.66
2022-11-03T13:27:09.951Z,16.85
2022-11-03T13:29:37.577Z,16.74
2022-11-03T13:32:05.749Z,16.81
2022-11-03T13:34:33.211Z,16.94
2022-11-03T13:37:01.009Z,16.74
2022-11-03T13:39:29.040Z,16.82
2022-11-03T13:41:56.747Z,16.98
2022-11-03T13:44:24.688Z,16.96
2022-11-03T13:46:52.301Z,16.98
2022-11-03T13:50:07.959Z,16.51
2022-11-03T13:52:08.767Z,16.39
2022-11-03T14:00:16.846Z,16.55
2022-11-03T14:05:32.437Z,16.41
2022-11-03T14:07:59.908Z,16.37
2022-11-03T14:10:27.359Z,16.35
2022-11-03T14:12:54.842Z,16.04
2022-11-03T14:15:22.380Z,16.08
2022-11-03T14:17:49.806Z,16.14
2022-11-03T14:20:17.444Z,16.32
2022-11-03T14:22:44.931Z,16.12
2022-11-03T14:25:12.378Z,16.21
2022-11-03T14:27:39.938Z,16.15
2022-11-03T14:30:08.023Z,16.34
2022-11-03T14:32:35.561Z,16.25
2022-11-03T14:35:03.270Z,16.19
2022-11-03T14:37:31.159Z,16.33
2022-11-03T14:39:58.881Z,16.35
2022-11-03T14:42:26.762Z,16.37
2022-11-03T14:44:54.913Z,16.34
2022-11-03T14:47:22.473Z,16.28
2022-11-03T14:49:49.958Z,16.14
2022-11-03T14:52:17.600Z,16.08
2022-11-03T14:54:45.327Z,16.05
2022-11-03T14:57:13.086Z,15.90
2022-11-03T14:59:40.812Z,15.98
2022-11-03T15:02:08.479Z,16.00
2022-11-03T15:04:36.302Z,16.00
2022-11-03T15:07:03.774Z,15.93
2022-11-03T15:09:31.246Z,15.94
2022-11-03T15:11:58.870Z,15.64
2022-11-03T15:14:26.373Z,15.80
2022-11-03T15:16:53.894Z,15.70
2022-11-03T15:19:21.639Z,15.33
2022-11-03T15:21:49.485Z,15.08
2022-11-03T15:27:04.691Z,14.46
2022-11-03T15:29:32.428Z,14.69
2022-11-03T15:32:00.250Z,14.88
2022-11-03T15:34:27.731Z,14.97
2022-11-03T15:36:55.557Z,15.12
2022-11-03T15:39:23.416Z,15.08
2022-11-03T15:41:50.980Z,15.04
2022-11-03T15:44:18.480Z,15.07
2022-11-03T15:46:45.944Z,15.15
2022-11-03T15:49:13.382Z,15.07
2022-11-03T15:51:40.825Z,15.14
2022-11-03T15:54:08.991Z,15.17
2022-11-03T15:56:36.633Z,15.15
2022-11-03T15:59:04.153Z,14.99
2022-11-03T16:01:31.916Z,14.84
2022-11-03T16:03:59.969Z,15.06
2022-11-03T16:06:53.689Z,14.72
2022-11-03T16:09:15.154Z,14.74
2022-11-03T16:11:42.815Z,14.74
2022-11-03T16:14:10.503Z,14.54
2022-11-03T16:16:38.291Z,14.44
2022-11-03T16:19:05.937Z,14.37
2022-11-03T16:21:33.442Z,14.10
2022-11-03T16:24:01.194Z,13.95
2022-11-03T16:26:31.346Z,14.09
2022-11-03T16:28:59.151Z,14.25
2022-11-03T16:31:27.171Z,14.39
2022-11-03T16:33:54.953Z,14.45
2022-11-03T16:36:22.591Z,14.14
2022-11-03T16:38:50.318Z,14.14
2022-11-03T16:41:18.052Z,14.35
2022-11-03T16:43:46.960Z,14.48
2022-11-03T16:46:19.719Z,14.25
2022-11-03T16:48:47.179Z,14.28
2022-11-03T16:51:14.778Z,14.27
2022-11-03T16:53:47.602Z,14.31
2022-11-03T16:56:15.060Z,14.47
2022-11-03T16:58:42.517Z,14.53
2022-11-03T17:01:10.057Z,14.50
2022-11-03T17:03:37.566Z,14.46
2022-11-03T17:06:05.128Z,14.57
2022-11-03T17:08:51.954Z,14.61
2022-11-03T17:11:35.715Z,14.68
2022-11-03T17:14:05.357Z,14.56
2022-11-03T17:16:33.644Z,14.68
2022-11-03T17:19:01.250Z,14.71
2022-11-03T17:21:28.819Z,14.55
2022-11-03T17:23:56.493Z,14.18
2022-11-03T17:26:34.890Z,14.48
2022-11-03T17:29:05.049Z,14.25
2022-11-03T17:31:32.755Z,14.47
2022-11-03T17:34:01.108Z,14.58
2022-11-03T17:36:29.203Z,14.57
2022-11-03T17:39:24.245Z,14.63
2022-11-03T17:41:52.072Z,14.69
2022-11-03T17:44:19.560Z,14.74
2022-11-03T17:46:47.074Z,14.75
2022-11-03T17:49:14.532Z,14.78
2022-11-03T17:51:42.381Z,14.29
2022-11-03T17:54:14.789Z,14.26
2022-11-03T17:56:42.703Z,14.44
2022-11-03T17:59:14.549Z,14.51
2022-11-03T18:01:42.401Z,14.55
2022-11-03T18:04:12.342Z,14.34
2022-11-03T18:06:40.141Z,14.51
2022-11-03T18:09:07.910Z,14.54
2022-11-03T18:11:56.140Z,14.55
2022-11-03T18:14:24.096Z,14.42
2022-11-03T18:16:51.563Z,13.99
2022-11-03T18:19:19.411Z,13.56
2022-11-03T18:21:47.313Z,14.02
2022-11-03T18:24:17.166Z,14.08
2022-11-03T18:26:44.647Z,14.24
2022-11-03T18:29:12.630Z,13.78
2022-11-03T18:31:47.171Z,13.95
2022-11-03T18:34:18.937Z,14.19
2022-11-03T18:36:47.016Z,13.75
2022-11-03T18:39:21.778Z,14.09
2022-11-03T18:41:49.403Z,14.13
2022-11-03T18:44:28.321Z,14.29
2022-11-03T18:46:57.465Z,14.34
2022-11-03T18:49:25.621Z,13.51
2022-11-03T18:52:02.900Z,13.93
2022-11-03T18:54:33.171Z,13.98
2022-11-03T18:57:01.239Z,13.92
2022-11-03T18:59:31.917Z,13.94
2022-11-03T19:02:00.187Z,14.08
2022-11-03T19:04:28.135Z,14.19
2022-11-03T19:06:56.479Z,14.23
2022-11-03T19:09:25.988Z,14.34
2022-11-03T19:11:56.319Z,14.40
2022-11-03T19:14:28.112Z,14.43
2022-11-03T19:19:45.241Z,13.65
2022-11-03T19:22:20.661Z,13.73
2022-11-03T19:24:49.696Z,13.79
2022-11-03T19:27:21.905Z,13.76
2022-11-03T19:29:49.740Z,13.88
2022-11-03T19:32:30.341Z,14.01
2022-11-03T19:35:02.075Z,14.14
2022-11-03T19:37:35.422Z,14.17
2022-11-03T19:40:09.316Z,14.22
2022-11-03T19:42:37.728Z,14.22
2022-11-03T19:45:10.987Z,14.26
2022-11-03T19:47:57.553Z,14.28
2022-11-03T19:50:34.409Z,14.15
2022-11-03T19:53:03.709Z,13.78
2022-11-03T19:55:35.059Z,13.79
2022-11-03T19:58:11.451Z,13.60
2022-11-03T20:00:39.280Z,13.69
2022-11-03T20:03:06.993Z,13.75
2022-11-03T20:05:34.868Z,13.84
2022-11-03T20:08:07.776Z,13.84
2022-11-03T20:10:36.192Z,13.80
2022-11-03T20:13:04.274Z,13.68
2022-11-03T20:15:34.085Z,13.67
2022-11-03T20:18:02.116Z,13.37
2022-11-03T20:20:34.761Z,13.54
2022-11-03T20:23:03.859Z,13.54
2022-11-03T20:25:36.324Z,13.68
2022-11-03T20:28:19.540Z,13.67
2022-11-03T20:30:48.378Z,13.69
2022-11-03T20:33:21.952Z,13.58
2022-11-03T20:35:50.790Z,13.63
2022-11-03T20:38:21.082Z,13.68
2022-11-03T20:40:58.141Z,13.65
2022-11-03T20:43:37.902Z,13.52
2022-11-03T20:46:20.838Z,13.11
2022-11-03T20:48:48.393Z,12.86
2022-11-03T20:51:16.973Z,13.13
2022-11-03T20:54:19.904Z,13.20
2022-11-03T20:56:48.280Z,13.09
2022-11-03T20:59:17.755Z,13.18
2022-11-03T21:01:45.877Z,13.23
2022-11-03T21:04:15.604Z,13.27
2022-11-03T21:06:43.630Z,13.20
2022-11-03T21:09:15.260Z,13.13
2022-11-03T21:11:43.418Z,12.63
2022-11-03T21:14:24.180Z,12.75
2022-11-03T21:17:10.202Z,12.74
2022-11-03T21:19:57.072Z,12.97
2022-11-03T21:22:51.898Z,12.84
2022-11-03T21:25:22.945Z,12.98
2022-11-03T21:27:50.611Z,12.68
2022-11-03T21:30:18.926Z,12.65
2022-11-03T21:32:47.754Z,12.79
2022-11-03T21:35:19.150Z,12.53
2022-11-03T21:37:47.325Z,12.74
2022-11-03T21:40:15.943Z,12.85
2022-11-03T21:43:02.860Z,12.49
2022-11-03T21:45:30.832Z,11.83
2022-11-03T21:48:17.394Z,11.89
2022-11-03T21:50:46.498Z,12.30
2022-11-03T21:53:14.376Z,12.40
2022-11-03T21:55:41.911Z,11.87
2022-11-03T21:58:09.574Z,11.63
2022-11-03T22:00:37.077Z,11.32
2022-11-03T22:03:04.698Z,11.49
2022-11-03T22:05:32.321Z,11.64
2022-11-03T22:07:59.882Z,11.58
2022-11-03T22:10:27.705Z,11.53
2022-11-03T22:12:55.300Z,11.91
2022-11-03T22:15:41.457Z,12.05
2022-11-03T22:18:09.386Z,12.15
2022-11-03T22:20:55.873Z,12.15
2022-11-03T22:23:42.222Z,12.08
2022-11-03T22:26:29.511Z,11.64
2022-11-03T22:29:16.683Z,11.83
2022-11-03T22:31:44.314Z,11.96
2022-11-03T22:34:30.503Z,11.94
2022-11-03T22:36:58.272Z,12.17
2022-11-03T22:39:44.681Z,12.22
2022-11-03T22:42:31.143Z,12.19
2022-11-03T22:45:17.805Z,12.34
2022-11-03T22:47:45.342Z,12.16
2022-11-03T22:50:12.815Z,12.23
2022-11-03T22:52:40.385Z,12.39
2022-11-03T22:55:08.055Z,12.46
2022-11-03T22:57:36.561Z,12.52
2022-11-03T23:00:05.825Z,12.59
2022-11-03T23:02:33.598Z,12.39
2022-11-03T23:05:01.198Z,12.50
2022-11-03T23:07:32.320Z,12.51
2022-11-03T23:10:05.116Z,12.53
2022-11-03T23:12:32.723Z,12.55
2022-11-03T23:15:18.986Z,12.35
2022-11-03T23:18:05.746Z,12.49
2022-11-03T23:20:59.733Z,12.58
2022-11-03T23:23:46.063Z,12.59
2022-11-03T23:26:14.020Z,12.56
2022-11-03T23:28:41.850Z,12.58
2022-11-03T23:31:11.197Z,12.63
2022-11-03T23:33:39.372Z,12.61
2022-11-03T23:36:09.785Z,12.58
2022-11-03T23:38:38.287Z,12.66
2022-11-03T23:41:11.458Z,12.65
2022-11-03T23:43:39.445Z,12.64
2022-11-03T23:46:25.848Z,12.61
2022-11-03T23:48:53.721Z,12.60
2022-11-03T23:51:23.440Z,12.68
2022-11-03T23:53:51.654Z,12.51
2022-11-03T23:56:40.738Z,12.58
2022-11-03T23:59:09.414Z,12.61
